ADDS METAR Data INFO
IDs: Format: Raw Decoded Include TAF

Data at: 0214 UTC 18 Jan 2018

KAOH 180153Z AUTO 23013KT 10SM CLR M11/M13 A3035 RMK AO2 SLP297 T11061133
KAOH 180053Z AUTO 23010KT 10SM CLR M11/M13 A3038 RMK AO2 SLP308 T11061133
KAOH 172353Z AUTO 23011KT 10SM CLR M10/M13 A3040 RMK AO2 SLP316 T11001133 11089 21106 56009
KAOH 172253Z AUTO 23011KT 10SM CLR M09/M13 A3041 RMK AO2 SLP318 T10941133
KAOH 172153Z AUTO 23010KT 10SM CLR M09/M12 A3042 RMK AO2 SLP320 T10891122
KAOH 172053Z AUTO 23009KT 10SM CLR M09/M12 A3043 RMK AO2 SLP325 T10891122 56010
KAOH 171953Z AUTO 23009KT 9SM CLR M09/M13 A3043 RMK AO2 SLP326 T10941128
KAOH 171853Z AUTO 24010KT 8SM CLR M10/M13 A3044 RMK AO2 SLP330 T11001128
KAOH 171753Z AUTO 22008KT 7SM CLR M11/M14 A3046 RMK AO2 SLP337 60000 T11061139 11106 21133 58011
KAOH 171653Z AUTO 23010KT 6SM BR OVC047 M12/M14 A3049 RMK AO2 SLP348 T11171139
KAOH 171553Z AUTO 23009KT 5SM BR OVC047 M12/M14 A3051 RMK AO2 SNE22 SLP355 P0000 T11221144
KAOH 171522Z AUTO 23009KT 4SM BR SCT009 OVC047 M13/M14 A3051 RMK AO2 SNE22 P0000 T11281144
KAOH 171453Z AUTO 22010KT 2SM -SN BR OVC008 M13/M15 A3050 RMK AO2 SLP350 P0000 60000 T11281150 53003
KAOH 171422Z AUTO 23006KT 2 1/2SM -SN BR BKN008 OVC046 M13/M14 A3049 RMK AO2 P0000 T11281144
KAOH 171353Z AUTO 23008KT 1 1/2SM -SN BR OVC007 M13/M14 A3049 RMK AO2 SLP348 P0000 T11331144
KAOH 171326Z AUTO 22007KT 1 1/2SM -SN BR OVC007 M13/M14 A3049 RMK AO2 P0000 T11331144
KAOH 171309Z AUTO 24009KT 2SM -SN BR OVC007 M13/M14 A3049 RMK AO2 P0000 T11331144
KAOH 171253Z AUTO 23008KT 5SM -SN BR OVC007 M13/M14 A3049 RMK AO2 SLP349 P0000 T11331139 $
KAOH 171153Z AUTO 26009KT 5SM -SN BR OVC007 M13/M14 A3049 RMK AO2 SNB41 SLP348 P0000 60000 T11281139 11128 21139 51003 $
KAOH 171053Z AUTO 23006KT 8SM OVC007 M13/M14 A3049 RMK AO2 SLP347 T11281144 $
KAOH 170953Z AUTO 24007KT 9SM OVC009 M13/M14 A3048 RMK AO2 SNE0857 SLP346 P0000 T11281144 $
KAOH 170939Z AUTO 23008KT 9SM OVC010 M13/M15 A3048 RMK AO2 SNE0857 P0000 T11331150 $
KAOH 170907Z AUTO 24007KT 9SM OVC009 M13/M15 A3048 RMK AO2 SNE0857 P0000 T11331150 $
KAOH 170853Z AUTO 24007KT 8SM -SN OVC010 M13/M15 A3048 RMK AO2 SNB29 SLP345 P0000 60000 T11331150 53002 $
KAOH 170753Z AUTO 24008KT 10SM OVC010 M13/M16 A3048 RMK AO2 SLP344 T11331156 $
KAOH 170653Z AUTO 25009KT 10SM OVC010 M13/M15 A3047 RMK AO2 SNB17E26 SLP341 P0000 T11331150 $
KAOH 170633Z AUTO 26010KT 10SM OVC014 M13/M16 A3047 RMK AO2 SNB17E26 P0000 T11331156 $
KAOH 170613Z AUTO 27011KT 9SM SCT009 OVC016 M13/M15 A3047 RMK AO2 T11331150 $
KAOH 170553Z AUTO 26009KT 9SM OVC009 M14/M16 A3047 RMK AO2 SNE05B34E48 SLP343 P0000 60000 T11391156 11133 21172 58006 $
KAOH 170514Z AUTO 25012KT 10SM OVC009 M14/M16 A3048 RMK AO2 SNE05 P0000 T11391156 $
KAOH 170453Z AUTO 25010KT 6SM -SN BR OVC010 M14/M16 A3049 RMK AO2 SNE0355B14 SLP348 P0000 T11391156 411171178 $
KAOH 170353Z AUTO 24008KT 8SM -SN OVC011 M14/M17 A3049 RMK AO2 SNB07 SLP351 P0000 T11441167 $
KAOH 170253Z AUTO 25009KT 10SM OVC012 M14/M17 A3049 RMK AO2 SNE15 SLP350 P0000 60000 T11441172 $
KAOH 170231Z AUTO 24009KT 10SM BKN013 OVC038 M15/M17 A3049 RMK AO2 SNE15 P0000 T11501172 $
KAOH 170153Z AUTO 26009KT 9SM -SN OVC039 M15/M18 A3049 RMK AO2 SNB52 SLP349 P0000 T11501178 $
KAOH 170053Z AUTO 24006KT 10SM M17/M19 A3048 RMK AO2 SLP347 T11671189 $
KAOH 162353Z AUTO 24007KT 10SM SCT016 OVC048 M17/M19 A3048 RMK AO2 SLP346 60000 T11671194 11150 21172 53010
KAOH 162310Z AUTO 24008KT 10SM BKN016 M17/M19 A3047 RMK AO2 T11671194
KAOH 162253Z AUTO 25009KT 10SM FEW016 M17/M19 A3046 RMK AO2 SLP341 T11671194
KAOH 162153Z AUTO 25012KT 5SM HZ FEW002 M16/M19 A3045 RMK AO2 SLP334 T11561189
KAOH 162151Z AUTO 25013KT 5SM HZ FEW002 M16/M19 A3045 RMK AO2
KAOH 162053Z AUTO 25011KT 10SM SCT013 M16/M19 A3043 RMK AO2 SLP328 60000 T11561189 53003
KAOH 162010Z AUTO 24010KT 8SM OVC014 M16/M19 A3042 RMK AO2 T11561189
KAOH 161953Z AUTO 25010KT 8SM BKN015 OVC020 M16/M19 A3042 RMK AO2 SNE10 SLP326 P0000 T11561189
KAOH 161853Z AUTO 25013KT 6SM -SN SCT018 OVC026 M16/M19 A3042 RMK AO2 SNB29 SLP325 P0000 T11561189
KAOH 161753Z AUTO 24012KT 6SM HZ BKN019 OVC048 M16/M19 A3042 RMK AO2 SLP324 T11561189 11150 21178 56010
KAOH 161749Z AUTO 23011KT 8SM BKN019 OVC048 M16/M19 A3042 RMK AO2
KAOH 161721Z AUTO 24014KT 10SM SCT014 BKN050 M16/M19 A3043 RMK AO2 T11611194
KAOH 161653Z AUTO 23013KT 8SM BKN021 OVC027 M17/M19 A3044 RMK AO2 SLP330 T11671194
KAOH 161623Z AUTO 23012KT 8SM BKN024 M17/M19 A3045 RMK AO2 T11671194
KAOH 161553Z AUTO 22013KT 10SM FEW025 M17/M20 A3045 RMK AO2 SLP335 T11721200
KAOH 161453Z AUTO 24014KT 10SM CLR M17/M20 A3045 RMK AO2 SLP333 T11721200 51009
KAOH 161433Z AUTO 24010KT 10SM SCT014 M18/M20 A3045 RMK AO2 T11781200
KAOH 161425Z AUTO 24010KT 9SM FEW007 BKN012 M18/M21 A3045 RMK AO2 T11781206